createdAt,value
2019-01-12T00:00:46.665Z,2.10
2019-01-12T00:03:16.975Z,1.37
2019-01-12T00:05:50.538Z,2.65
2019-01-12T00:08:20.297Z,1.80
2019-01-12T00:10:51.962Z,2.52
2019-01-12T00:13:21.640Z,1.17
2019-01-12T00:15:51.399Z,1.80
2019-01-12T00:18:21.131Z,1.20
2019-01-12T00:20:50.755Z,1.12
2019-01-12T00:23:20.419Z,0.80
2019-01-12T00:25:50.112Z,1.10
2019-01-12T00:28:21.015Z,1.20
2019-01-12T00:30:55.281Z,1.05
2019-01-12T00:33:32.788Z,1.70
2019-01-12T00:36:02.399Z,1.00
2019-01-12T00:38:32.016Z,1.20
2019-01-12T00:41:01.644Z,1.75
2019-01-12T00:43:33.055Z,1.52
2019-01-12T00:46:02.672Z,1.30
2019-01-12T00:48:34.976Z,1.10
2019-01-12T00:51:04.774Z,1.40
2019-01-12T00:53:34.397Z,3.55
2019-01-12T00:56:04.088Z,1.37
2019-01-12T00:58:36.198Z,1.10
2019-01-12T01:01:06.065Z,1.30
2019-01-12T01:03:35.683Z,0.90
2019-01-12T01:06:05.402Z,1.10
2019-01-12T01:08:35.349Z,1.25
2019-01-12T01:11:05.353Z,1.22
2019-01-12T01:13:35.292Z,1.67
2019-01-12T01:16:05.264Z,1.62
2019-01-12T01:18:34.898Z,1.30
2019-01-12T01:21:06.752Z,1.25
2019-01-12T01:23:38.158Z,2.00
2019-01-12T01:26:07.876Z,2.17
2019-01-12T01:28:37.521Z,1.47
2019-01-12T01:31:07.140Z,1.00
2019-01-12T01:33:36.763Z,2.10
2019-01-12T01:36:06.543Z,1.60
2019-01-12T01:38:36.154Z,1.17
2019-01-12T01:41:05.849Z,2.10
2019-01-12T01:43:35.468Z,0.80
2019-01-12T01:46:05.223Z,1.10
2019-01-12T01:48:34.836Z,1.67
2019-01-12T01:51:04.454Z,1.20
2019-01-12T01:53:34.065Z,1.32
2019-01-12T01:56:05.539Z,1.05
2019-01-12T01:58:35.171Z,1.10
2019-01-12T02:01:04.928Z,1.20
2019-01-12T02:03:35.527Z,1.90
2019-01-12T02:06:06.132Z,1.30
2019-01-12T02:08:35.754Z,1.70
2019-01-12T02:11:05.352Z,1.20
2019-01-12T02:13:39.207Z,1.82
2019-01-12T02:16:10.438Z,1.05
2019-01-12T02:18:40.052Z,1.15
2019-01-12T02:21:09.674Z,0.95
2019-01-12T02:23:41.121Z,2.27
2019-01-12T02:26:10.747Z,1.75
2019-01-12T02:28:40.367Z,1.10
2019-01-12T02:31:14.768Z,1.02
2019-01-12T02:33:44.391Z,1.67
2019-01-12T02:36:17.132Z,1.30
2019-01-12T02:38:46.736Z,1.57
2019-01-12T02:41:16.450Z,1.80
2019-01-12T02:43:46.053Z,1.30
2019-01-12T02:46:17.241Z,1.10
2019-01-12T02:48:49.950Z,1.20
2019-01-12T02:51:19.735Z,1.10
2019-01-12T02:53:49.337Z,1.40
2019-01-12T02:56:19.006Z,2.50
2019-01-12T02:58:49.960Z,1.50
2019-01-12T03:01:19.636Z,1.10
2019-01-12T03:03:49.278Z,3.05
2019-01-12T03:06:18.954Z,1.57
2019-01-12T03:08:52.427Z,2.33
2019-01-12T03:11:24.383Z,1.92
2019-01-12T03:13:54.167Z,1.30
2019-01-12T03:16:23.796Z,2.50
2019-01-12T03:18:53.579Z,2.35
2019-01-12T03:21:28.173Z,1.57
2019-01-12T03:23:57.786Z,1.65
2019-01-12T03:26:27.424Z,1.92
2019-01-12T03:28:57.106Z,2.98
2019-01-12T03:31:29.746Z,1.40
2019-01-12T03:33:59.421Z,2.22
2019-01-12T03:36:29.173Z,2.62
2019-01-12T03:38:58.796Z,3.02
2019-01-12T03:41:30.906Z,2.10
2019-01-12T03:44:00.600Z,2.17
2019-01-12T03:46:41.752Z,1.50
2019-01-12T03:49:11.376Z,2.20
2019-01-12T03:51:40.986Z,3.25
2019-01-12T03:54:10.618Z,2.12
2019-01-12T03:56:40.239Z,1.50
2019-01-12T03:59:10.451Z,1.60
2019-01-12T04:01:40.067Z,1.70
2019-01-12T04:04:09.691Z,1.47
2019-01-12T04:06:39.455Z,1.77
2019-01-12T04:09:09.482Z,2.27
2019-01-12T04:11:40.433Z,2.10
2019-01-12T04:14:10.060Z,1.62
2019-01-12T04:16:39.664Z,1.70
2019-01-12T04:19:09.282Z,2.10
2019-01-12T04:21:38.906Z,1.60
2019-01-12T04:24:08.537Z,1.62
2019-01-12T04:26:38.148Z,1.75
2019-01-12T04:29:09.402Z,1.80
2019-01-12T04:31:39.186Z,3.47
2019-01-12T04:34:08.882Z,1.77
2019-01-12T04:36:42.815Z,1.75
2019-01-12T04:39:12.445Z,1.32
2019-01-12T04:41:42.064Z,1.70
2019-01-12T04:44:11.682Z,1.50
2019-01-12T04:46:43.409Z,1.87
2019-01-12T04:49:13.031Z,2.05
2019-01-12T04:51:42.644Z,1.98
2019-01-12T04:54:12.259Z,1.40
2019-01-12T04:56:41.868Z,3.05
2019-01-12T04:59:11.493Z,1.67
2019-01-12T05:01:41.108Z,1.30
2019-01-12T05:04:10.736Z,1.10
2019-01-12T05:06:40.354Z,1.70
2019-01-12T05:09:13.386Z,1.67
2019-01-12T05:11:43.001Z,2.47
2019-01-12T05:14:15.445Z,2.58
2019-01-12T05:16:45.086Z,1.45
2019-01-12T05:19:14.696Z,2.12
2019-01-12T05:21:44.400Z,1.42
2019-01-12T05:24:14.028Z,2.37
2019-01-12T05:26:43.644Z,1.35
2019-01-12T05:29:13.270Z,1.77
2019-01-12T05:31:45.393Z,2.67
2019-01-12T05:34:15.017Z,1.77
2019-01-12T05:36:44.704Z,2.08
2019-01-12T05:39:14.396Z,1.77
2019-01-12T05:41:44.000Z,2.25
2019-01-12T05:44:13.614Z,1.87
2019-01-12T05:46:43.286Z,1.57
2019-01-12T05:49:12.900Z,1.82
2019-01-12T05:51:42.504Z,1.75
2019-01-12T05:54:12.122Z,2.02
2019-01-12T05:56:41.728Z,1.80
2019-01-12T05:59:11.337Z,1.95
2019-01-12T06:01:40.961Z,2.15
2019-01-12T06:04:12.183Z,1.62
2019-01-12T06:06:41.829Z,2.58
2019-01-12T06:09:11.450Z,2.70
2019-01-12T06:11:41.065Z,2.45
2019-01-12T06:14:15.285Z,1.85
2019-01-12T06:16:44.992Z,1.80
2019-01-12T06:19:14.603Z,1.55
2019-01-12T06:21:44.235Z,2.00
2019-01-12T06:24:13.866Z,1.85
2019-01-12T06:26:43.486Z,1.75
2019-01-12T06:29:13.109Z,1.70
2019-01-12T06:31:42.728Z,3.17
2019-01-12T06:34:12.352Z,2.67
2019-01-12T06:36:43.789Z,1.80
2019-01-12T06:39:13.400Z,2.40
2019-01-12T06:41:44.088Z,1.67
2019-01-12T06:44:13.700Z,2.70
2019-01-12T06:46:43.330Z,2.65
2019-01-12T06:49:12.948Z,1.67
2019-01-12T06:51:44.373Z,2.15
2019-01-12T06:54:18.642Z,3.10
2019-01-12T06:56:48.272Z,2.42
2019-01-12T06:59:20.376Z,1.82
2019-01-12T07:01:50.032Z,1.90
2019-01-12T07:04:19.823Z,2.40
2019-01-12T07:06:49.535Z,2.05
2019-01-12T07:09:19.154Z,2.20
2019-01-12T07:11:48.774Z,2.40
2019-01-12T07:14:20.094Z,2.45
2019-01-12T07:16:49.703Z,2.47
2019-01-12T07:19:19.381Z,3.15
2019-01-12T07:21:48.998Z,3.05
2019-01-12T07:24:23.755Z,4.28
2019-01-12T07:26:53.794Z,2.67
2019-01-12T07:29:23.412Z,4.80
2019-01-12T07:31:53.048Z,2.40
2019-01-12T07:34:22.773Z,4.85
2019-01-12T07:36:52.555Z,3.83
2019-01-12T07:39:22.269Z,3.62
2019-01-12T07:41:51.890Z,3.05
2019-01-12T07:44:21.542Z,2.77
2019-01-12T07:46:52.802Z,2.83
2019-01-12T07:49:22.530Z,2.92
2019-01-12T07:51:52.141Z,2.52
2019-01-12T07:54:22.841Z,1.85
2019-01-12T07:56:52.477Z,3.05
2019-01-12T07:59:22.106Z,2.45
2019-01-12T08:01:51.708Z,2.72
2019-01-12T08:04:21.525Z,3.30
2019-01-12T08:06:51.146Z,3.83
2019-01-12T08:09:29.902Z,2.40
2019-01-12T08:11:59.661Z,2.10
2019-01-12T08:14:29.272Z,2.30
2019-01-12T08:17:03.410Z,1.37
2019-01-12T08:19:37.457Z,2.00
2019-01-12T08:22:07.102Z,2.37
2019-01-12T08:24:36.744Z,1.95
2019-01-12T08:27:06.496Z,2.08
2019-01-12T08:29:36.120Z,2.08
2019-01-12T08:32:05.810Z,2.20
2019-01-12T08:34:36.656Z,1.82
2019-01-12T08:37:08.124Z,2.17
2019-01-12T08:39:42.782Z,1.70
2019-01-12T08:42:12.358Z,2.30
2019-01-12T08:44:42.012Z,1.72
2019-01-12T08:47:11.647Z,4.50
2019-01-12T08:49:42.890Z,3.10
2019-01-12T08:52:12.518Z,1.42
2019-01-12T08:54:42.133Z,2.15
2019-01-12T08:57:14.139Z,2.33
2019-01-12T08:59:46.251Z,2.87
2019-01-12T09:02:16.180Z,3.45
2019-01-12T09:04:45.810Z,2.35
2019-01-12T09:07:15.534Z,1.60
2019-01-12T09:09:45.296Z,3.37
2019-01-12T09:12:14.942Z,1.90
2019-01-12T09:14:44.667Z,2.40
2019-01-12T09:17:14.364Z,1.57
2019-01-12T09:19:44.018Z,2.37
2019-01-12T09:22:13.670Z,2.00
2019-01-12T09:24:43.283Z,1.70
2019-01-12T09:27:13.005Z,2.17
2019-01-12T09:29:42.701Z,2.45
2019-01-12T09:32:12.357Z,2.05
2019-01-12T09:34:42.050Z,1.65
2019-01-12T09:37:13.300Z,2.08
2019-01-12T09:39:44.536Z,2.33
2019-01-12T09:42:14.240Z,1.70
2019-01-12T09:44:44.998Z,1.60
2019-01-12T09:47:14.774Z,3.17
2019-01-12T09:49:44.381Z,2.00
2019-01-12T09:52:14.072Z,1.55
2019-01-12T09:54:43.762Z,2.40
2019-01-12T09:57:13.529Z,1.92
2019-01-12T09:59:46.086Z,1.62
2019-01-12T10:02:16.001Z,1.85
2019-01-12T10:04:45.708Z,1.20
2019-01-12T10:07:15.324Z,1.40
2019-01-12T10:09:44.947Z,1.55
2019-01-12T10:12:14.566Z,1.52
2019-01-12T10:14:44.257Z,1.25
2019-01-12T10:17:13.875Z,1.60
2019-01-12T10:19:44.469Z,1.20
2019-01-12T10:22:14.076Z,2.10
2019-01-12T10:24:43.684Z,1.50
2019-01-12T10:27:13.438Z,1.27
2019-01-12T10:29:43.103Z,1.20
2019-01-12T10:32:12.796Z,1.82
2019-01-12T10:34:42.422Z,1.80
2019-01-12T10:37:13.660Z,2.00
2019-01-12T10:39:43.439Z,1.77
2019-01-12T10:42:15.512Z,1.60
2019-01-12T10:44:48.450Z,2.20
2019-01-12T10:47:22.693Z,1.57
2019-01-12T10:49:52.321Z,1.72
2019-01-12T10:52:22.089Z,1.20
2019-01-12T10:54:51.786Z,2.52
2019-01-12T10:57:21.693Z,2.55
2019-01-12T10:59:51.296Z,1.75
2019-01-12T11:02:26.768Z,2.47
2019-01-12T11:04:56.384Z,2.08
2019-01-12T11:07:29.585Z,1.70
2019-01-12T11:10:04.131Z,1.57
2019-01-12T11:12:31.030Z,1.67
2019-01-12T11:15:01.957Z,1.20
2019-01-12T11:17:31.657Z,1.40
2019-01-12T11:20:01.298Z,1.15
2019-01-12T11:22:32.818Z,1.32
2019-01-12T11:25:10.932Z,1.55
2019-01-12T11:27:40.557Z,1.50
2019-01-12T11:30:13.593Z,2.02
2019-01-12T11:32:43.366Z,1.62
2019-01-12T11:35:13.142Z,1.55
2019-01-12T11:37:42.909Z,1.47
2019-01-12T11:40:15.561Z,1.40
2019-01-12T11:42:47.839Z,1.80
2019-01-12T11:45:17.901Z,1.87
2019-01-12T11:47:47.598Z,2.20
2019-01-12T11:50:17.623Z,2.00
2019-01-12T11:52:48.005Z,2.17
2019-01-12T11:55:19.062Z,1.75
2019-01-12T11:57:48.772Z,1.42
2019-01-12T12:00:26.214Z,1.95
2019-01-12T12:03:03.559Z,1.30
2019-01-12T12:05:33.252Z,1.60
2019-01-12T12:08:02.876Z,2.25
2019-01-12T12:10:32.488Z,1.42
2019-01-12T12:13:02.174Z,1.22
2019-01-12T12:15:31.782Z,1.27
2019-01-12T12:18:04.282Z,4.20
2019-01-12T12:20:33.957Z,21.15
2019-01-12T12:23:03.819Z,27.48
2019-01-12T12:25:33.454Z,64.67
2019-01-12T12:28:04.737Z,82.37
2019-01-12T12:30:34.507Z,117.75
2019-01-12T12:33:04.462Z,157.97
2019-01-12T12:35:37.851Z,173.00
2019-01-12T12:38:07.952Z,172.98
2019-01-12T12:40:37.575Z,210.72
2019-01-12T12:43:08.320Z,219.25
2019-01-12T12:45:37.964Z,210.55
2019-01-12T12:48:10.267Z,219.85
2019-01-12T12:50:39.898Z,206.10
2019-01-12T12:53:09.615Z,214.60
2019-01-12T12:55:39.339Z,202.85
2019-01-12T12:58:09.261Z,198.23
2019-01-12T13:00:38.970Z,192.15
2019-01-12T13:03:08.653Z,206.07
2019-01-12T13:05:39.280Z,199.45
2019-01-12T13:08:09.056Z,172.95
2019-01-12T13:10:38.788Z,175.22
2019-01-12T13:13:10.296Z,176.47
2019-01-12T13:15:40.013Z,169.95
2019-01-12T13:18:09.810Z,158.18
2019-01-12T13:20:39.448Z,157.20
2019-01-12T13:23:09.085Z,191.50
2019-01-12T13:25:38.728Z,176.45
2019-01-12T13:28:08.496Z,176.10
2019-01-12T13:30:39.386Z,149.68
2019-01-12T13:33:09.122Z,152.87
2019-01-12T13:35:38.774Z,146.22
2019-01-12T13:38:08.563Z,152.10
2019-01-12T13:40:38.195Z,140.20
2019-01-12T13:43:07.892Z,145.00
2019-01-12T13:45:37.698Z,138.72
2019-01-12T13:48:08.832Z,130.40
2019-01-12T13:50:40.072Z,138.18
2019-01-12T13:53:09.901Z,131.25
2019-01-12T13:55:39.607Z,130.32
2019-01-12T13:58:13.105Z,125.27
2019-01-12T14:00:42.725Z,132.82
2019-01-12T14:03:12.486Z,127.38
2019-01-12T14:05:42.262Z,133.52
2019-01-12T14:08:12.970Z,116.05
2019-01-12T14:10:42.656Z,109.30
2019-01-12T14:13:12.699Z,116.47
2019-01-12T14:15:42.430Z,107.65
2019-01-12T14:18:12.171Z,108.25
2019-01-12T14:20:48.004Z,104.25
2019-01-12T14:23:17.629Z,94.40
2019-01-12T14:25:48.225Z,88.00
2019-01-12T14:28:17.924Z,92.45
2019-01-12T14:30:47.548Z,92.22
2019-01-12T14:33:18.607Z,99.50
2019-01-12T14:35:48.414Z,89.00
2019-01-12T14:38:18.142Z,95.87
2019-01-12T14:40:47.846Z,82.88
2019-01-12T14:43:17.474Z,90.90
2019-01-12T14:45:47.600Z,80.95
2019-01-12T14:48:18.855Z,84.15
2019-01-12T14:50:48.484Z,78.35
2019-01-12T14:53:18.137Z,78.17
2019-01-12T14:55:47.762Z,77.62
2019-01-12T14:58:17.419Z,63.40
2019-01-12T15:00:47.129Z,74.85
2019-01-12T15:03:16.804Z,71.90
2019-01-12T15:05:48.477Z,62.65
2019-01-12T15:08:18.146Z,70.55
2019-01-12T15:10:47.764Z,58.40
2019-01-12T15:13:19.902Z,59.77
2019-01-12T15:15:49.541Z,57.05
2019-01-12T15:18:19.169Z,55.90
2019-01-12T15:20:48.791Z,55.25
2019-01-12T15:23:18.449Z,58.10
2019-01-12T15:25:48.062Z,51.48
2019-01-12T15:28:17.712Z,55.50
2019-01-12T15:30:49.564Z,53.87
2019-01-12T15:33:21.739Z,77.92
2019-01-12T15:35:51.368Z,57.90
2019-01-12T15:38:21.263Z,58.28
2019-01-12T15:40:50.902Z,53.13
2019-01-12T15:43:28.783Z,52.98
2019-01-12T15:45:58.510Z,54.27
2019-01-12T15:48:28.792Z,49.77
2019-01-12T15:50:58.412Z,48.60
2019-01-12T15:53:29.006Z,49.15
2019-01-12T15:55:58.629Z,48.55
2019-01-12T15:58:28.251Z,45.60
2019-01-12T16:01:00.291Z,45.33
2019-01-12T16:03:29.926Z,45.55
2019-01-12T16:05:59.558Z,38.05
2019-01-12T16:08:29.313Z,40.30
2019-01-12T16:10:59.087Z,40.60
2019-01-12T16:13:31.137Z,41.28
2019-01-12T16:16:00.827Z,36.60
2019-01-12T16:18:31.734Z,37.93
2019-01-12T16:21:02.988Z,34.03
2019-01-12T16:23:32.614Z,36.00
2019-01-12T16:26:02.337Z,30.57
2019-01-12T16:28:32.160Z,33.98
2019-01-12T16:31:01.795Z,29.30
2019-01-12T16:33:32.390Z,33.08
2019-01-12T16:36:02.020Z,30.85
2019-01-12T16:38:31.644Z,29.98
2019-01-12T16:41:01.280Z,31.80
2019-01-12T16:43:30.912Z,27.07
2019-01-12T16:46:00.618Z,29.40
2019-01-12T16:48:30.250Z,29.50
2019-01-12T16:50:59.875Z,24.70
2019-01-12T16:53:31.976Z,26.07
2019-01-12T16:56:01.632Z,26.25
2019-01-12T16:58:31.323Z,27.70
2019-01-12T17:01:00.950Z,28.98
2019-01-12T17:03:34.915Z,25.68
2019-01-12T17:06:07.152Z,27.00
2019-01-12T17:08:36.778Z,29.92
2019-01-12T17:11:06.486Z,23.57
2019-01-12T17:13:36.120Z,27.73
2019-01-12T17:16:11.052Z,23.75
2019-01-12T17:18:43.352Z,24.05
2019-01-12T17:21:13.015Z,26.35
2019-01-12T17:23:42.645Z,21.55
2019-01-12T17:26:12.387Z,22.65
2019-01-12T17:28:42.021Z,22.00
2019-01-12T17:31:11.668Z,22.10
2019-01-12T17:33:41.296Z,24.27
2019-01-12T17:36:10.923Z,22.87
2019-01-12T17:38:40.551Z,21.23
2019-01-12T17:41:10.183Z,21.50
2019-01-12T17:43:39.820Z,20.75
2019-01-12T17:46:09.515Z,19.37
2019-01-12T17:48:39.161Z,22.73
2019-01-12T17:51:10.136Z,19.07
2019-01-12T17:53:41.377Z,22.15
2019-01-12T17:56:11.044Z,19.32
2019-01-12T17:58:44.416Z,17.75
2019-01-12T18:01:11.995Z,15.30
2019-01-12T18:03:41.738Z,24.12
2019-01-12T18:06:11.368Z,16.10
2019-01-12T18:08:42.747Z,19.48
2019-01-12T18:11:12.413Z,17.82
2019-01-12T18:13:42.058Z,20.23
2019-01-12T18:16:11.884Z,20.20
2019-01-12T18:18:41.528Z,15.85
2019-01-12T18:21:11.386Z,22.22
2019-01-12T18:23:45.618Z,19.60
2019-01-12T18:26:17.692Z,15.80
2019-01-12T18:28:51.608Z,16.23
2019-01-12T18:31:21.177Z,15.80
2019-01-12T18:33:50.884Z,16.27
2019-01-12T18:36:20.618Z,19.37
2019-01-12T18:38:50.256Z,18.48
2019-01-12T18:41:19.901Z,20.68
2019-01-12T18:43:50.610Z,17.90
2019-01-12T18:46:20.358Z,19.27
2019-01-12T18:48:49.994Z,18.12
2019-01-12T18:51:19.741Z,18.77
2019-01-12T18:53:51.704Z,15.50
2019-01-12T18:56:21.428Z,15.72
2019-01-12T18:58:51.186Z,13.18
2019-01-12T19:01:20.896Z,14.38
2019-01-12T19:03:50.525Z,14.45
2019-01-12T19:06:20.233Z,13.75
2019-01-12T19:08:49.856Z,14.07
2019-01-12T19:11:19.518Z,12.37
2019-01-12T19:13:49.470Z,13.03
2019-01-12T19:16:19.119Z,12.75
2019-01-12T19:18:48.748Z,13.95
2019-01-12T19:21:18.432Z,16.40
2019-01-12T19:23:48.068Z,15.70
2019-01-12T19:26:17.710Z,12.18
2019-01-12T19:28:47.339Z,11.35
2019-01-12T19:31:16.982Z,11.20
2019-01-12T19:33:48.854Z,12.95
2019-01-12T19:36:24.504Z,12.35
2019-01-12T19:38:55.947Z,10.30
2019-01-12T19:41:25.586Z,13.40
2019-01-12T19:43:55.209Z,13.18
2019-01-12T19:46:26.909Z,12.75
2019-01-12T19:48:56.589Z,10.82
2019-01-12T19:51:26.226Z,13.20
2019-01-12T19:53:55.873Z,11.65
2019-01-12T19:56:25.574Z,9.10
2019-01-12T19:58:55.201Z,13.55
2019-01-12T20:01:24.820Z,10.93
2019-01-12T20:03:54.432Z,9.68
2019-01-12T20:06:27.106Z,10.53
2019-01-12T20:08:56.730Z,11.95
2019-01-12T20:11:26.349Z,9.48
2019-01-12T20:13:55.966Z,10.40
2019-01-12T20:16:25.602Z,9.05
2019-01-12T20:18:55.221Z,9.38
2019-01-12T20:21:24.836Z,8.90
2019-01-12T20:23:54.454Z,10.25
2019-01-12T20:26:28.148Z,11.25
2019-01-12T20:28:57.777Z,10.35
2019-01-12T20:31:57.131Z,10.45
2019-01-12T20:34:45.358Z,10.40
2019-01-12T20:37:50.430Z,10.85
2019-01-12T20:40:45.526Z,11.30
2019-01-12T20:43:33.861Z,7.47
2019-01-12T20:46:45.488Z,9.15
2019-01-12T20:49:43.836Z,9.53
2019-01-12T20:52:59.404Z,7.80
2019-01-12T20:56:08.948Z,9.20
2019-01-12T20:59:07.259Z,7.62
2019-01-12T21:02:24.235Z,7.22
2019-01-12T21:05:18.570Z,7.28
2019-01-12T21:08:28.928Z,10.03
2019-01-12T21:11:20.902Z,7.58
2019-01-12T21:14:30.828Z,7.10
2019-01-12T21:17:05.305Z,5.80
2019-01-12T21:19:34.990Z,7.55
2019-01-12T21:22:06.226Z,8.03
2019-01-12T21:24:35.878Z,5.53
2019-01-12T21:27:05.727Z,5.35
2019-01-12T21:29:35.482Z,6.97
2019-01-12T21:32:05.485Z,7.72
2019-01-12T21:34:35.149Z,4.00
2019-01-12T21:37:05.247Z,5.45
2019-01-12T21:39:34.941Z,7.65
2019-01-12T21:42:04.924Z,6.80
2019-01-12T21:44:34.517Z,5.40
2019-01-12T21:47:04.297Z,6.08
2019-01-12T21:49:33.983Z,5.62
2019-01-12T21:52:03.710Z,5.42
2019-01-12T21:54:33.375Z,5.65
2019-01-12T21:57:03.149Z,5.10
2019-01-12T21:59:33.134Z,5.25
2019-01-12T22:02:05.890Z,4.28
2019-01-12T22:04:35.525Z,4.72
2019-01-12T22:07:05.241Z,5.87
2019-01-12T22:09:35.004Z,5.05
2019-01-12T22:12:04.904Z,9.45
2019-01-12T22:14:34.691Z,4.10
2019-01-12T22:17:04.402Z,5.45
2019-01-12T22:19:34.108Z,5.08
2019-01-12T22:22:04.022Z,4.90
2019-01-12T22:24:33.659Z,4.17
2019-01-12T22:27:03.293Z,3.70
2019-01-12T22:29:32.994Z,5.58
2019-01-12T22:32:02.683Z,5.00
2019-01-12T22:34:32.736Z,6.20
2019-01-12T22:37:02.426Z,5.45
2019-01-12T22:39:32.042Z,4.60
2019-01-12T22:42:01.664Z,4.70
2019-01-12T22:44:31.378Z,3.92
2019-01-12T22:47:01.058Z,7.20
2019-01-12T22:49:32.298Z,5.45
2019-01-12T22:52:01.912Z,5.40
2019-01-12T22:54:31.544Z,6.35
2019-01-12T22:57:01.170Z,5.35
2019-01-12T22:59:30.792Z,3.33
2019-01-12T23:02:02.669Z,4.50
2019-01-12T23:04:33.328Z,4.90
2019-01-12T23:07:03.017Z,2.83
2019-01-12T23:09:32.652Z,4.35
2019-01-12T23:12:02.329Z,5.70
2019-01-12T23:14:33.008Z,4.08
2019-01-12T23:17:03.087Z,3.33
2019-01-12T23:19:35.943Z,5.25
2019-01-12T23:22:05.876Z,3.65
2019-01-12T23:24:35.604Z,5.53
2019-01-12T23:27:05.374Z,5.62
2019-01-12T23:29:34.994Z,3.77
2019-01-12T23:32:04.766Z,3.10
2019-01-12T23:34:35.538Z,3.58
2019-01-12T23:37:05.602Z,2.95
2019-01-12T23:39:35.232Z,3.10
2019-01-12T23:42:05.186Z,3.52
2019-01-12T23:44:34.807Z,3.58
2019-01-12T23:47:05.463Z,2.98
2019-01-12T23:49:35.086Z,3.98
2019-01-12T23:52:05.157Z,4.55
2019-01-12T23:54:34.780Z,3.95
2019-01-12T23:57:04.625Z,4.78
2019-01-12T23:59:34.255Z,5.65
